createdAt,value
2018-10-11T00:04:26.734Z,17.65
2018-10-11T00:09:30.149Z,16.30
2018-10-11T00:14:33.923Z,17.30
2018-10-11T00:19:37.570Z,15.58
2018-10-11T00:24:40.997Z,16.83
2018-10-11T00:29:44.723Z,15.90
2018-10-11T00:34:48.142Z,17.27
2018-10-11T00:39:52.525Z,17.60
2018-10-11T00:44:55.924Z,15.15
2018-10-11T00:49:59.505Z,16.57
2018-10-11T00:55:05.025Z,15.72
2018-10-11T01:00:08.808Z,17.00
2018-10-11T01:05:13.236Z,19.20
2018-10-11T01:10:16.715Z,17.50
2018-10-11T01:15:20.832Z,16.70
2018-10-11T01:20:24.991Z,15.28
2018-10-11T01:25:28.592Z,15.50
2018-10-11T01:30:32.886Z,18.65
2018-10-11T01:35:37.340Z,18.00
2018-10-11T01:40:41.619Z,18.77
2018-10-11T01:45:45.014Z,18.32
2018-10-11T01:50:48.449Z,16.95
2018-10-11T01:55:52.004Z,19.20
2018-10-11T02:00:57.048Z,17.23
2018-10-11T02:06:02.404Z,20.77
2018-10-11T02:11:05.892Z,18.42
2018-10-11T02:16:09.444Z,20.43
2018-10-11T02:21:13.444Z,19.07
2018-10-11T02:26:18.423Z,18.77
2018-10-11T02:31:21.774Z,17.60
2018-10-11T02:36:25.327Z,18.48
2018-10-11T02:41:29.757Z,18.23
2018-10-11T02:46:33.854Z,20.37
2018-10-11T02:51:37.277Z,19.63
2018-10-11T02:56:41.039Z,19.80
2018-10-11T03:01:44.504Z,20.30
2018-10-11T03:06:48.866Z,19.98
2018-10-11T03:11:53.251Z,19.30
2018-10-11T03:16:58.232Z,18.30
2018-10-11T03:22:01.657Z,17.70
2018-10-11T03:27:05.033Z,20.50
2018-10-11T03:32:08.464Z,19.90
2018-10-11T03:37:11.957Z,18.10
2018-10-11T03:42:15.376Z,17.50
2018-10-11T03:47:18.888Z,20.40
2018-10-11T03:52:22.393Z,20.70
2018-10-11T03:57:26.623Z,19.70
2018-10-11T04:02:30.084Z,21.83
2018-10-11T04:07:33.810Z,19.20
2018-10-11T04:12:37.941Z,11.25
2018-10-11T04:17:48.790Z,14.80
2018-10-11T04:22:52.331Z,15.20
2018-10-11T04:27:56.218Z,17.20
2018-10-11T04:32:59.658Z,18.87
2018-10-11T04:38:03.184Z,23.95
2018-10-11T04:43:06.733Z,23.20
2018-10-11T04:48:10.165Z,24.65
2018-10-11T04:53:14.602Z,22.82
2018-10-11T04:58:21.424Z,23.73
2018-10-11T05:03:24.902Z,26.75
2018-10-11T05:08:28.478Z,23.57
2018-10-11T05:13:39.119Z,29.85
2018-10-11T05:18:46.155Z,24.87
2018-10-11T05:23:49.735Z,26.48
2018-10-11T05:28:53.203Z,29.92
2018-10-11T05:33:56.707Z,25.05
2018-10-11T05:39:00.268Z,25.65
2018-10-11T05:44:03.787Z,24.95
2018-10-11T05:49:07.300Z,25.85
2018-10-11T05:54:10.960Z,25.17
2018-10-11T05:59:14.378Z,25.83
2018-10-11T06:04:18.095Z,25.30
2018-10-11T06:09:21.708Z,28.10
2018-10-11T06:14:25.892Z,27.90
2018-10-11T06:19:31.149Z,24.87
2018-10-11T06:24:38.419Z,23.70
2018-10-11T06:29:45.558Z,27.30
2018-10-11T06:34:49.113Z,27.22
2018-10-11T06:39:52.810Z,22.60
2018-10-11T06:44:57.243Z,22.00
2018-10-11T06:50:01.786Z,27.52
2018-10-11T06:55:05.828Z,24.13
2018-10-11T07:00:11.162Z,23.42
2018-10-11T07:05:14.680Z,24.50
2018-10-11T07:10:19.455Z,25.90
2018-10-11T07:15:22.992Z,25.05
2018-10-11T07:20:26.505Z,25.55
2018-10-11T07:25:30.438Z,23.80
2018-10-11T07:30:33.855Z,22.40
2018-10-11T07:35:37.452Z,21.65
2018-10-11T07:40:43.312Z,20.92
2018-10-11T07:45:46.934Z,21.27
2018-10-11T07:50:52.221Z,20.68
2018-10-11T07:55:55.692Z,21.13
2018-10-11T08:01:02.110Z,22.40
2018-10-11T08:06:05.644Z,21.70
2018-10-11T08:11:09.282Z,20.67
2018-10-11T08:16:14.368Z,20.35
2018-10-11T08:21:18.679Z,18.43
2018-10-11T08:26:24.441Z,19.32
2018-10-11T08:31:31.137Z,19.00
2018-10-11T08:36:35.650Z,18.62
2018-10-11T08:41:40.222Z,18.07
2018-10-11T08:57:50.728Z,17.70
2018-10-11T09:02:54.959Z,17.27
2018-10-11T09:36:02.452Z,15.87
2018-10-11T09:41:06.345Z,14.90
2018-10-11T09:46:25.772Z,15.70
2018-10-11T09:51:29.240Z,14.33
2018-10-11T10:02:58.154Z,14.70
2018-10-11T10:08:04.970Z,14.83
2018-10-11T10:13:08.290Z,15.28
2018-10-11T10:18:11.644Z,15.23
2018-10-11T10:23:14.932Z,14.90
2018-10-11T10:28:18.802Z,15.53
2018-10-11T10:33:23.360Z,12.80
2018-10-11T10:38:26.676Z,15.35
2018-10-11T10:43:29.972Z,13.55
2018-10-11T10:48:33.258Z,13.28
2018-10-11T10:53:36.698Z,14.75
2018-10-11T10:58:40.114Z,13.40
2018-10-11T11:03:43.446Z,13.62
2018-10-11T11:08:46.804Z,12.70
2018-10-11T11:13:50.746Z,13.30
2018-10-11T11:18:57.635Z,13.10
2018-10-11T11:24:00.981Z,12.20
2018-10-11T11:29:04.414Z,12.37
2018-10-11T11:34:07.676Z,13.30
2018-10-11T11:39:11.069Z,12.30
2018-10-11T11:44:14.434Z,12.80
2018-10-11T11:49:22.586Z,12.20
2018-10-11T11:54:26.709Z,12.00
2018-10-11T11:59:33.900Z,11.35
2018-10-11T12:04:37.417Z,11.03
2018-10-11T12:09:40.938Z,11.80
2018-10-11T12:14:44.364Z,11.30
2018-10-11T12:19:47.766Z,11.70
2018-10-11T12:24:51.112Z,11.60
2018-10-11T12:29:54.398Z,11.33
2018-10-11T12:34:57.772Z,10.15
2018-10-11T12:40:01.101Z,10.67
2018-10-11T12:45:04.584Z,10.17
2018-10-11T12:50:08.960Z,11.00
2018-10-11T12:55:12.266Z,11.20
2018-10-11T13:00:16.539Z,11.68
2018-10-11T13:05:19.894Z,11.48
2018-10-11T13:10:23.161Z,11.43
2018-10-11T13:15:26.492Z,10.30
2018-10-11T13:20:29.779Z,11.03
2018-10-11T13:25:33.116Z,11.12
2018-10-11T13:30:36.433Z,11.00
2018-10-11T13:35:39.744Z,10.90
2018-10-11T13:40:43.203Z,12.05
2018-10-11T13:45:46.486Z,12.13
2018-10-11T13:50:49.910Z,12.05
2018-10-11T13:55:56.671Z,12.70
2018-10-11T14:00:56.483Z,12.75
2018-10-11T14:05:59.857Z,12.78
2018-10-11T14:11:03.134Z,13.60
2018-10-11T14:16:06.522Z,13.60
2018-10-11T14:21:09.991Z,14.50
2018-10-11T14:26:13.316Z,14.40
2018-10-11T14:31:16.543Z,13.60
2018-10-11T14:36:20.474Z,13.80
2018-10-11T14:41:23.680Z,13.70
2018-10-11T14:46:27.745Z,12.78
2018-10-11T14:51:31.120Z,13.32
2018-10-11T14:56:34.373Z,11.97
2018-10-11T15:01:37.692Z,12.18
2018-10-11T15:06:41.027Z,12.05
2018-10-11T15:11:44.398Z,11.93
2018-10-11T15:16:47.669Z,9.93
2018-10-11T15:21:50.985Z,11.60
2018-10-11T15:26:54.336Z,10.75
2018-10-11T15:31:57.660Z,11.90
2018-10-11T15:37:01.052Z,11.90
2018-10-11T15:42:04.525Z,10.35
2018-10-11T15:52:45.437Z,10.95
2018-10-11T15:57:48.848Z,10.72
2018-10-11T16:03:10.680Z,10.93
2018-10-11T16:08:16.085Z,11.20
2018-10-11T16:13:19.600Z,13.80
2018-10-11T16:18:23.109Z,12.80
2018-10-11T16:23:26.794Z,12.35
2018-10-11T16:28:31.322Z,13.20
2018-10-11T16:33:34.825Z,13.43
2018-10-11T16:38:38.349Z,15.65
2018-10-11T16:43:41.795Z,12.40
2018-10-11T16:48:45.177Z,12.30
2018-10-11T16:53:49.333Z,13.60
2018-10-11T16:58:52.817Z,13.83
2018-10-11T17:03:56.493Z,14.77
2018-10-11T17:09:12.640Z,15.18
2018-10-11T17:14:17.014Z,16.10
2018-10-11T17:19:23.183Z,15.30
2018-10-11T17:24:33.640Z,17.10
2018-10-11T17:29:38.270Z,15.33
2018-10-11T17:34:41.694Z,16.93
2018-10-11T17:39:45.061Z,13.93
2018-10-11T17:44:50.707Z,13.30
2018-10-11T17:55:15.607Z,13.00
2018-10-11T18:00:19.717Z,12.90
2018-10-11T18:05:24.138Z,14.03
2018-10-11T18:10:28.383Z,12.20
2018-10-11T18:15:32.750Z,12.77
2018-10-11T18:20:36.177Z,14.28
2018-10-11T18:25:39.940Z,14.00
2018-10-11T18:30:44.619Z,13.50
2018-10-11T18:35:50.488Z,19.70
2018-10-11T18:40:54.226Z,16.20
2018-10-11T18:45:59.114Z,15.38
2018-10-11T18:51:04.982Z,14.45
2018-10-11T18:56:12.292Z,18.30
2018-10-11T19:01:29.799Z,18.12
2018-10-11T19:06:33.443Z,20.60
2018-10-11T19:11:36.853Z,19.17
2018-10-11T19:16:40.654Z,18.62
2018-10-11T19:21:44.036Z,19.55
2018-10-11T19:26:50.624Z,26.77
2018-10-11T19:31:54.073Z,26.17
2018-10-11T19:36:57.389Z,19.62
2018-10-11T19:42:00.820Z,16.40
2018-10-11T19:47:04.233Z,19.97
2018-10-11T19:52:07.641Z,19.07
2018-10-11T19:57:11.125Z,19.05
2018-10-11T20:02:14.662Z,19.75
2018-10-11T20:07:18.049Z,22.45
2018-10-11T20:12:21.497Z,19.70
2018-10-11T20:17:24.992Z,20.00
2018-10-11T20:22:28.223Z,19.33
2018-10-11T20:27:33.844Z,18.67
2018-10-11T20:32:37.257Z,18.23
2018-10-11T20:37:40.667Z,20.00
2018-10-11T20:42:44.112Z,20.23
2018-10-11T20:47:47.542Z,17.92
2018-10-11T20:52:50.865Z,20.77
2018-10-11T20:57:54.160Z,18.48
2018-10-11T21:02:57.564Z,17.10
2018-10-11T21:08:03.448Z,20.80
2018-10-11T21:57:50.714Z,14.87
2018-10-11T22:02:57.476Z,14.80
2018-10-11T22:08:01.117Z,18.67
2018-10-11T22:13:04.408Z,16.62
2018-10-11T22:18:07.685Z,16.62
2018-10-11T22:23:10.953Z,16.55
2018-10-11T22:28:14.246Z,17.70
2018-10-11T22:33:17.554Z,25.35
2018-10-11T22:38:20.855Z,20.72
2018-10-11T22:43:24.244Z,24.27
2018-10-11T22:48:28.680Z,26.37
2018-10-11T22:53:32.016Z,30.20
2018-10-11T22:58:35.316Z,25.35
2018-10-11T23:03:38.579Z,22.33
2018-10-11T23:08:41.864Z,21.62
2018-10-11T23:13:45.184Z,20.63
2018-10-11T23:18:48.581Z,21.65
2018-10-11T23:23:51.833Z,21.20
2018-10-11T23:28:55.064Z,20.68
2018-10-11T23:33:58.447Z,20.50
2018-10-11T23:39:01.711Z,19.50
2018-10-11T23:44:04.953Z,20.95
2018-10-11T23:49:09.303Z,19.15
2018-10-11T23:54:12.548Z,19.67
2018-10-11T23:59:15.820Z,19.37
